Time;durP1;ratioP1;P1;durP2;ratioP2;P2;SDS_P1;SDS_P2;PMS_P1;PMS_P2;Temp;Humidity;BMP_temperature;BMP_pressure;BME280_temperature;BME280_humidity;BME280_pressure;Samples;Min_cycle;Max_cycle;Signal;HPM_P1;HPM_P2
2021/12/04 00:01:56;;;;;;;2.03;1.23;;;3.60;98.30;;;;;;2695379;53;20417;-67
2021/12/04 00:04:30;;;;;;;2.92;1.40;;;3.60;98.10;;;;;;2699848;53;20066;-64
2021/12/04 00:06:57;;;;;;;4.55;1.73;;;3.60;98.00;;;;;;2700410;53;20065;-64
2021/12/04 00:09:24;;;;;;;3.83;1.48;;;3.60;98.00;;;;;;2699684;53;20061;-65
2021/12/04 00:11:55;;;;;;;4.78;1.55;;;3.60;97.90;;;;;;2700250;53;20445;-67
2021/12/04 00:14:22;;;;;;;2.67;1.45;;;3.60;97.80;;;;;;2690622;53;20065;-47
2021/12/04 00:16:49;;;;;;;2.83;1.45;;;3.70;97.70;;;;;;2695582;53;20081;-66
2021/12/04 00:19:16;;;;;;;2.60;1.52;;;3.60;97.60;;;;;;2699577;53;20524;-66
2021/12/04 00:21:43;;;;;;;3.28;2.08;;;3.60;97.50;;;;;;2699210;53;20103;-69
2021/12/04 00:24:10;;;;;;;4.00;1.70;;;3.70;97.50;;;;;;2690775;53;20100;-67
2021/12/04 00:26:38;;;;;;;3.58;1.30;;;3.60;97.40;;;;;;2695318;53;20421;-69
2021/12/04 00:29:07;;;;;;;2.03;1.38;;;3.60;97.50;;;;;;2699600;53;20084;-66
2021/12/04 00:31:34;;;;;;;3.33;1.35;;;3.70;97.40;;;;;;2700804;53;20066;-69
2021/12/04 00:34:01;;;;;;;1.33;0.75;;;3.70;97.40;;;;;;2690108;53;20062;-66
2021/12/04 00:50:17;;;;;;;2.40;1.13;;;3.70;97.60;;;;;;2677320;53;20198;-67
2021/12/04 00:52:47;;;;;;;1.73;1.25;;;3.70;97.20;;;;;;2676678;53;20067;-68
2021/12/04 00:55:14;;;;;;;1.80;1.13;;;3.70;97.50;;;;;;2676088;53;20069;-60
2021/12/04 00:57:41;;;;;;;2.28;1.08;;;3.70;97.40;;;;;;2680965;53;20063;-62
2021/12/04 01:00:11;;;;;;;1.95;1.45;;;3.70;97.30;;;;;;2676359;53;20066;-61
2021/12/04 01:02:38;;;;;;;3.45;1.45;;;3.70;97.20;;;;;;2676200;53;20063;-62
2021/12/04 01:05:05;;;;;;;1.85;1.13;;;3.70;97.00;;;;;;2670352;53;20138;-60
2021/12/04 01:07:33;;;;;;;3.15;1.30;;;3.70;97.00;;;;;;2670444;53;20063;-61
2021/12/04 01:10:01;;;;;;;2.47;1.50;;;3.70;96.80;;;;;;2659173;53;20064;-54
2021/12/04 01:12:28;;;;;;;2.35;1.05;;;3.70;96.90;;;;;;2659197;53;20076;-54
2021/12/04 01:14:55;;;;;;;4.20;0.85;;;3.70;96.80;;;;;;2659371;53;20358;-61
2021/12/04 01:17:22;;;;;;;2.78;1.92;;;3.80;96.60;;;;;;2659649;53;20071;-59
2021/12/04 01:19:49;;;;;;;3.78;1.30;;;3.80;96.60;;;;;;2659168;53;20503;-50
2021/12/04 01:22:19;;;;;;;1.77;0.90;;;3.80;96.50;;;;;;2669237;53;20143;-58
2021/12/04 01:24:48;;;;;;;2.60;1.23;;;3.80;96.50;;;;;;2675241;53;20074;-58
2021/12/04 01:27:15;;;;;;;3.80;1.38;;;3.80;96.60;;;;;;2675032;53;20078;-49
2021/12/04 01:29:42;;;;;;;1.85;1.08;;;3.80;96.20;;;;;;2668081;53;20060;-57
2021/12/04 01:32:09;;;;;;;2.42;0.80;;;3.80;96.00;;;;;;2668496;53;20068;-53
2021/12/04 01:34:37;;;;;;;1.10;0.90;;;3.80;96.00;;;;;;2663705;53;20072;-52
2021/12/04 01:37:04;;;;;;;2.35;0.70;;;3.80;95.80;;;;;;2663846;53;20083;-55
2021/12/04 01:39:32;;;;;;;3.25;1.13;;;3.80;95.80;;;;;;2663914;53;20064;-54
2021/12/04 01:41:59;;;;;;;3.60;0.80;;;3.80;95.60;;;;;;2673780;53;20070;-54
2021/12/04 01:44:26;;;;;;;4.78;1.05;;;3.80;95.60;;;;;;2664053;53;20087;-55
2021/12/04 01:46:56;;;;;;;1.55;0.82;;;3.80;95.60;;;;;;2670325;53;20071;-56
2021/12/04 01:49:24;;;;;;;1.77;1.00;;;3.80;95.50;;;;;;2679960;53;20650;-51
2021/12/04 01:51:51;;;;;;;1.52;0.90;;;3.80;95.40;;;;;;2674921;53;20066;-55
2021/12/04 01:54:18;;;;;;;1.38;0.93;;;3.80;95.20;;;;;;2674762;53;20493;-52
2021/12/04 01:56:45;;;;;;;4.30;0.88;;;3.80;95.20;;;;;;2675151;53;20455;-50
2021/12/04 01:59:12;;;;;;;0.80;0.77;;;3.80;95.00;;;;;;2679630;53;20176;-49
2021/12/04 02:01:39;;;;;;;3.30;0.90;;;3.80;94.90;;;;;;2679644;53;20067;-53
2021/12/04 02:04:06;;;;;;;2.10;0.90;;;3.80;94.90;;;;;;2674873;53;20435;-49
2021/12/04 02:06:33;;;;;;;2.20;1.05;;;3.80;94.90;;;;;;2683589;53;20070;-48
2021/12/04 02:09:00;;;;;;;1.65;0.70;;;3.80;94.90;;;;;;2687363;53;20065;-47
2021/12/04 02:11:27;;;;;;;2.15;0.73;;;3.90;94.80;;;;;;2692159;53;20069;-47
2021/12/04 02:13:54;;;;;;;0.88;0.52;;;3.90;94.90;;;;;;2691821;53;20152;-53
2021/12/04 02:16:22;;;;;;;2.05;0.80;;;3.90;94.90;;;;;;2697130;53;20084;-49
2021/12/04 02:18:49;;;;;;;2.80;0.85;;;3.90;95.00;;;;;;2693440;53;20069;-48
2021/12/04 02:21:16;;;;;;;0.90;0.65;;;3.90;95.20;;;;;;2693412;53;20127;-46
2021/12/04 02:23:43;;;;;;;1.90;1.15;;;3.90;95.10;;;;;;2698174;53;20525;-47
2021/12/04 02:26:12;;;;;;;2.70;1.13;;;3.90;95.20;;;;;;2693573;53;20130;-46
2021/12/04 02:28:39;;;;;;;1.40;0.73;;;3.90;95.60;;;;;;2693550;53;20057;-45
2021/12/04 02:31:06;;;;;;;3.42;1.05;;;3.90;95.60;;;;;;2698444;53;20111;-44
2021/12/04 02:33:33;;;;;;;1.85;1.15;;;3.90;95.70;;;;;;2693243;53;20102;-43
2021/12/04 02:36:02;;;;;;;1.20;0.80;;;3.90;95.90;;;;;;2698410;53;20061;-43
2021/12/04 02:38:29;;;;;;;1.13;0.88;;;3.90;96.10;;;;;;2689035;53;20068;-43
2021/12/04 02:41:02;;;;;;;1.40;0.75;;;3.90;96.20;;;;;;2693737;52;20525;-43
2021/12/04 02:43:34;;;;;;;3.60;1.15;;;3.90;96.40;;;;;;2698375;53;20445;-43
2021/12/04 02:46:01;;;;;;;2.55;0.85;;;3.90;96.40;;;;;;2697949;53;20065;-46
2021/12/04 02:48:28;;;;;;;6.00;1.27;;;3.90;96.60;;;;;;2688314;53;20062;-44
2021/12/04 02:50:55;;;;;;;2.15;1.27;;;3.90;96.60;;;;;;2686891;53;20522;-43
2021/12/04 02:53:22;;;;;;;2.53;1.17;;;3.90;96.80;;;;;;2681929;53;20069;-40
2021/12/04 02:55:50;;;;;;;1.70;1.25;;;4.00;96.90;;;;;;2686751;53;20073;-42
2021/12/04 02:58:17;;;;;;;1.30;0.63;;;4.00;97.00;;;;;;2687080;53;20074;-42
2021/12/04 03:00:51;;;;;;;1.27;0.85;;;4.00;97.50;;;;;;2687777;53;20131;-41
2021/12/04 03:03:19;;;;;;;2.63;1.50;;;4.00;97.40;;;;;;2687781;53;20070;-40
2021/12/04 03:05:50;;;;;;;2.22;1.70;;;3.90;97.60;;;;;;2687837;53;20113;-37
2021/12/04 03:08:17;;;;;;;5.80;1.42;;;3.90;97.70;;;;;;2687641;53;20134;-39
2021/12/04 03:10:47;;;;;;;2.70;1.35;;;3.90;97.80;;;;;;2687853;53;20067;-39
2021/12/04 03:13:17;;;;;;;2.63;0.98;;;3.90;98.00;;;;;;2687649;53;20058;-42
2021/12/04 03:15:47;;;;;;;3.22;1.52;;;4.00;98.00;;;;;;2687614;53;20066;-41
2021/12/04 03:18:14;;;;;;;2.30;1.55;;;4.00;97.80;;;;;;2682829;53;20065;-39
2021/12/04 03:20:42;;;;;;;2.97;1.77;;;4.00;98.20;;;;;;2687713;53;20664;-38
2021/12/04 03:23:16;;;;;;;1.17;0.73;;;4.00;98.00;;;;;;2682797;53;20062;-39
2021/12/04 03:25:47;;;;;;;2.65;1.38;;;4.10;97.80;;;;;;2676429;53;20067;-41
2021/12/04 03:28:16;;;;;;;5.03;1.95;;;4.10;98.00;;;;;;2671854;53;20072;-40
2021/12/04 03:30:51;;;;;;;2.10;1.25;;;4.10;97.80;;;;;;2676387;53;20066;-42
2021/12/04 03:41:22;;;;;;;1.20;0.85;;;4.10;97.90;;;;;;2676777;53;20058;-44
2021/12/04 03:43:49;;;;;;;1.70;1.25;;;4.10;98.10;;;;;;2676313;53;20070;-42
2021/12/04 03:46:19;;;;;;;3.00;1.77;;;4.10;97.80;;;;;;2681225;53;20067;-38
2021/12/04 03:51:13;;;;;;;1.92;0.90;;;4.10;97.70;;;;;;2682060;53;20066;-39
2021/12/04 03:53:40;;;;;;;3.47;1.63;;;4.10;97.70;;;;;;2682137;53;20058;-40
2021/12/04 03:56:09;;;;;;;0.90;0.60;;;4.10;97.70;;;;;;2690235;53;20061;-42
2021/12/04 03:58:36;;;;;;;4.07;1.45;;;4.10;97.70;;;;;;2698658;53;20073;-42
2021/12/04 04:01:03;;;;;;;1.25;1.00;;;4.10;97.50;;;;;;2694126;53;20057;-43
2021/12/04 04:03:30;;;;;;;2.90;1.58;;;4.10;97.30;;;;;;2698537;53;20065;-38
2021/12/04 04:05:57;;;;;;;3.83;1.73;;;4.10;97.30;;;;;;2698763;53;20522;-39
2021/12/04 04:08:24;;;;;;;2.15;0.60;;;4.10;97.30;;;;;;2698529;52;20073;-38
2021/12/04 04:10:53;;;;;;;1.38;0.77;;;4.10;97.30;;;;;;2698586;52;20525;-43
2021/12/04 04:13:21;;;;;;;2.70;0.50;;;4.00;97.40;;;;;;2698780;53;20061;-39
2021/12/04 04:15:48;;;;;;;1.63;1.23;;;4.00;97.50;;;;;;2693828;53;20515;-40
2021/12/04 04:18:16;;;;;;;3.55;0.90;;;4.00;97.60;;;;;;2694204;53;20066;-40
2021/12/04 04:20:43;;;;;;;5.43;1.05;;;4.00;97.80;;;;;;2698693;53;20409;-42
2021/12/04 04:23:10;;;;;;;1.27;0.95;;;3.90;97.80;;;;;;2693851;52;20110;-42
2021/12/04 04:25:37;;;;;;;1.70;1.08;;;3.90;97.80;;;;;;2698591;53;20147;-41
2021/12/04 04:28:04;;;;;;;2.35;0.90;;;3.90;98.00;;;;;;2703233;52;20072;-41
2021/12/04 04:30:31;;;;;;;3.10;1.10;;;3.90;98.00;;;;;;2693753;53;20552;-41
2021/12/04 04:33:00;;;;;;;1.85;0.93;;;3.90;98.10;;;;;;2698524;53;20053;-43
2021/12/04 04:35:30;;;;;;;2.42;0.80;;;3.90;98.10;;;;;;2698407;53;20076;-41
2021/12/04 04:57:39;;;;;;;1.95;0.68;;;4.10;98.30;;;;;;2687154;53;20096;-39
2021/12/04 05:10:04;;;;;;;1.23;1.13;;;4.10;98.40;;;;;;2675049;53;20067;-39
2021/12/04 05:11:06;;;;;;;2.78;1.02;;;4.20;98.20;;;;;;2675212;53;20090;-38
2021/12/04 05:13:33;;;;;;;1.95;0.73;;;4.10;98.30;;;;;;2675675;53;20129;-37
2021/12/04 05:16:10;;;;;;;1.45;0.85;;;4.10;98.30;;;;;;2670437;53;20059;-37
2021/12/04 05:18:40;;;;;;;3.47;0.57;;;4.10;98.20;;;;;;2675355;53;20678;-39
2021/12/04 05:21:08;;;;;;;2.38;0.80;;;4.10;98.00;;;;;;2674976;53;20190;-37
2021/12/04 05:23:45;;;;;;;4.20;0.57;;;4.20;97.90;;;;;;2670363;53;20062;-39
2021/12/04 05:26:27;;;;;;;1.58;0.70;;;4.20;98.00;;;;;;2670408;53;20059;-40
2021/12/04 05:28:58;;;;;;;1.73;1.02;;;4.20;98.10;;;;;;2670545;53;20582;-40
2021/12/04 05:31:26;;;;;;;3.05;0.93;;;4.20;98.10;;;;;;2675064;53;20118;-37
2021/12/04 05:33:53;;;;;;;4.53;1.33;;;4.20;98.20;;;;;;2682281;53;20128;-40
2021/12/04 05:36:20;;;;;;;2.75;1.13;;;4.20;98.40;;;;;;2687061;53;20569;-38
2021/12/04 05:38:47;;;;;;;2.90;0.88;;;4.10;98.60;;;;;;2687052;53;20068;-39
2021/12/04 05:41:16;;;;;;;4.90;1.27;;;4.10;98.70;;;;;;2686773;53;20558;-40
2021/12/04 05:43:43;;;;;;;2.65;1.25;;;4.10;98.90;;;;;;2686708;53;20125;-40
2021/12/04 05:46:18;;;;;;;1.23;0.80;;;4.10;98.90;;;;;;2682319;53;20136;-39
2021/12/04 05:56:18;;;;;;;2.25;0.95;;;4.20;98.40;;;;;;2678162;53;20136;-40
2021/12/04 05:58:45;;;;;;;1.38;0.80;;;4.20;98.30;;;;;;2686919;53;20490;-40
2021/12/04 06:01:13;;;;;;;3.60;1.00;;;4.20;98.10;;;;;;2691404;53;20437;-41
2021/12/04 06:03:40;;;;;;;1.70;1.40;;;4.30;97.90;;;;;;2686872;53;20059;-39
2021/12/04 06:06:07;;;;;;;1.10;0.80;;;4.30;97.90;;;;;;2686785;53;20538;-38
2021/12/04 06:08:35;;;;;;;3.25;0.73;;;4.30;97.80;;;;;;2686741;53;20070;-38
2021/12/04 06:11:02;;;;;;;1.95;0.80;;;4.30;97.50;;;;;;2686851;53;20764;-38
2021/12/04 06:13:29;;;;;;;3.17;1.00;;;4.20;97.50;;;;;;2680054;53;20070;-38
2021/12/04 06:15:56;;;;;;;1.75;0.70;;;4.30;97.40;;;;;;2667989;53;20124;-39
2021/12/04 06:18:23;;;;;;;2.03;0.82;;;4.30;97.30;;;;;;2668153;53;20256;-37
2021/12/04 06:23:36;;;;;;;2.33;0.77;;;4.30;97.20;;;;;;2668254;53;20067;-36
2021/12/04 06:26:07;;;;;;;2.17;0.80;;;4.30;97.10;;;;;;2663493;53;20076;-37
2021/12/04 06:28:36;;;;;;;1.25;0.80;;;4.30;97.20;;;;;;2663447;53;20060;-40
2021/12/04 06:31:03;;;;;;;1.90;0.85;;;4.30;97.10;;;;;;2667893;53;20483;-37
2021/12/04 06:33:30;;;;;;;0.80;0.50;;;4.30;97.10;;;;;;2663958;53;20067;-39
2021/12/04 06:35:57;;;;;;;1.17;0.93;;;4.30;97.20;;;;;;2664849;53;20083;-37
2021/12/04 06:38:25;;;;;;;2.80;1.27;;;4.30;97.20;;;;;;2664418;53;20143;-36
2021/12/04 06:40:52;;;;;;;1.90;1.10;;;4.20;97.30;;;;;;2669275;53;20512;-37
2021/12/04 06:43:20;;;;;;;5.75;0.93;;;4.20;97.40;;;;;;2669207;53;20071;-37
2021/12/04 06:45:57;;;;;;;8.63;0.98;;;4.20;97.40;;;;;;2664892;53;20067;-36
2021/12/04 06:48:27;;;;;;;4.00;0.80;;;4.20;97.40;;;;;;2681446;53;20150;-36
2021/12/04 06:51:03;;;;;;;4.03;1.20;;;4.20;97.20;;;;;;2694851;53;20084;-38
2021/12/04 06:54:16;;;;;;;2.15;1.45;;;4.30;97.00;;;;;;2698728;53;20065;-35
2021/12/04 06:56:22;;;;;;;1.98;0.80;;;4.30;97.00;;;;;;2698818;53;20069;-37
2021/12/04 06:58:52;;;;;;;7.90;0.77;;;4.30;96.80;;;;;;2699055;53;20497;-36
2021/12/04 07:01:20;;;;;;;2.20;0.80;;;4.30;96.90;;;;;;2698998;53;20521;-36
2021/12/04 07:03:51;;;;;;;6.55;1.23;;;4.30;96.80;;;;;;2703862;53;20065;-36
2021/12/04 07:06:18;;;;;;;5.60;1.55;;;4.30;96.80;;;;;;2694192;53;20072;-36
2021/12/04 07:08:45;;;;;;;2.50;0.98;;;4.30;96.70;;;;;;2698929;53;20069;-48
2021/12/04 07:11:12;;;;;;;4.70;1.60;;;4.30;96.70;;;;;;2699029;53;20122;-39
2021/12/04 07:13:39;;;;;;;4.50;1.70;;;4.20;96.80;;;;;;2698723;53;20068;-37
2021/12/04 07:16:08;;;;;;;3.65;0.77;;;4.20;96.90;;;;;;2699240;53;20068;-35
2021/12/04 07:18:35;;;;;;;3.33;1.20;;;4.20;96.70;;;;;;2698827;53;20142;-36
2021/12/04 07:21:03;;;;;;;3.58;0.98;;;4.20;96.60;;;;;;2703503;52;20057;-36
2021/12/04 07:23:31;;;;;;;4.47;1.40;;;4.20;96.60;;;;;;2698731;53;20484;-36
2021/12/04 07:25:58;;;;;;;1.73;0.60;;;4.30;96.60;;;;;;2698520;53;20089;-36
2021/12/04 07:28:25;;;;;;;3.13;1.13;;;4.30;96.60;;;;;;2698780;53;20065;-36
2021/12/04 07:30:52;;;;;;;2.17;1.30;;;4.30;97.60;;;;;;2698679;53;20061;-37
2021/12/04 07:33:20;;;;;;;5.45;1.80;;;4.10;97.80;;;;;;2698534;53;20065;-36
2021/12/04 07:35:47;;;;;;;2.00;1.30;;;4.10;98.00;;;;;;2698597;53;20121;-51
2021/12/04 07:38:14;;;;;;;5.70;1.23;;;4.10;98.20;;;;;;2698571;53;20076;-37
2021/12/04 07:40:43;;;;;;;4.10;1.80;;;4.10;98.70;;;;;;2698488;53;20068;-37
2021/12/04 07:43:13;;;;;;;3.00;1.48;;;4.00;99.10;;;;;;2698143;52;20050;-36
2021/12/04 07:45:40;;;;;;;2.60;1.58;;;4.00;99.00;;;;;;2697762;52;20179;-38
2021/12/04 07:48:07;;;;;;;3.90;2.40;;;4.00;99.10;;;;;;2688449;53;20733;-37
2021/12/04 07:50:35;;;;;;;3.53;1.90;;;4.00;98.90;;;;;;2680206;53;20063;-39
2021/12/04 07:53:02;;;;;;;3.70;1.38;;;4.00;98.60;;;;;;2670919;53;20134;-37
2021/12/04 07:55:30;;;;;;;4.40;1.80;;;4.00;98.90;;;;;;2675908;53;20474;-37
2021/12/04 07:57:57;;;;;;;3.10;1.27;;;4.00;98.80;;;;;;2680736;53;20071;-38
2021/12/04 08:00:24;;;;;;;2.55;1.50;;;4.10;98.60;;;;;;2676477;53;20067;-38
2021/12/04 08:02:51;;;;;;;2.70;1.10;;;4.00;98.60;;;;;;2666812;53;20542;-38
2021/12/04 08:05:19;;;;;;;2.95;1.80;;;4.00;98.60;;;;;;2675974;53;20062;-51
2021/12/04 08:07:46;;;;;;;4.10;1.45;;;4.10;98.60;;;;;;2675896;53;20070;-38
2021/12/04 08:10:17;;;;;;;2.88;1.55;;;4.10;98.70;;;;;;2675939;53;20621;-38
2021/12/04 08:12:44;;;;;;;2.83;1.55;;;4.00;98.90;;;;;;2676051;53;20193;-39
2021/12/04 08:15:12;;;;;;;2.40;1.27;;;4.00;99.10;;;;;;2685395;53;20067;-39
2021/12/04 08:17:41;;;;;;;2.25;0.85;;;4.00;99.40;;;;;;2685169;53;20562;-37
2021/12/04 08:20:10;;;;;;;3.80;1.50;;;4.00;99.60;;;;;;2676469;53;20079;-37
2021/12/04 08:22:37;;;;;;;1.95;0.85;;;3.90;99.70;;;;;;2675094;53;20571;-37
2021/12/04 08:25:05;;;;;;;4.35;1.40;;;3.90;99.70;;;;;;2675987;53;20071;-42
2021/12/04 08:27:32;;;;;;;5.37;1.70;;;3.90;99.90;;;;;;2680640;53;20075;-39
2021/12/04 08:29:59;;;;;;;1.98;1.23;;;3.90;99.90;;;;;;2680477;53;20071;-39
2021/12/04 08:32:27;;;;;;;2.70;1.52;;;3.90;99.90;;;;;;2680786;53;20066;-44
2021/12/04 08:34:54;;;;;;;3.10;1.25;;;3.80;99.90;;;;;;2680394;53;20062;-36
2021/12/04 08:37:21;;;;;;;2.88;1.00;;;3.80;99.90;;;;;;2675845;53;20541;-44
2021/12/04 08:39:49;;;;;;;6.40;1.65;;;3.80;99.90;;;;;;2681193;53;20510;-36
2021/12/04 08:42:16;;;;;;;3.55;1.05;;;3.80;99.90;;;;;;2669550;53;20071;-38
2021/12/04 08:44:43;;;;;;;3.47;1.75;;;3.80;99.90;;;;;;2669380;53;20079;-44
2021/12/04 08:47:11;;;;;;;1.83;1.30;;;3.80;99.90;;;;;;2670319;53;20158;-38
2021/12/04 08:49:38;;;;;;;4.13;2.22;;;3.80;99.90;;;;;;2659986;53;20079;-37
2021/12/04 08:52:05;;;;;;;2.42;1.33;;;3.80;99.90;;;;;;2669762;53;20133;-37
2021/12/04 08:54:32;;;;;;;4.60;1.80;;;3.80;99.90;;;;;;2674598;53;20071;-39
2021/12/04 08:56:59;;;;;;;5.32;1.55;;;3.80;99.90;;;;;;2680257;53;20070;-39
2021/12/04 08:59:27;;;;;;;2.58;1.50;;;3.80;99.90;;;;;;2685137;53;20058;-38
2021/12/04 09:01:54;;;;;;;3.78;1.48;;;3.70;99.90;;;;;;2675624;53;20063;-41
2021/12/04 09:04:27;;;;;;;3.22;1.52;;;3.70;99.90;;;;;;2680514;53;20062;-50
2021/12/04 09:06:54;;;;;;;3.17;1.20;;;3.70;99.90;;;;;;2671496;53;20122;-37
2021/12/04 09:09:21;;;;;;;6.30;2.15;;;3.70;99.90;;;;;;2680633;53;20470;-40
2021/12/04 09:12:01;;;;;;;4.57;2.13;;;3.70;99.90;;;;;;2680695;53;20074;-41
2021/12/04 09:14:30;;;;;;;4.65;1.98;;;3.70;99.90;;;;;;2691284;53;20109;-41
2021/12/04 09:16:59;;;;;;;4.43;2.08;;;3.80;99.90;;;;;;2691251;53;20105;-43
2021/12/04 09:19:26;;;;;;;5.55;2.65;;;3.70;99.90;;;;;;2691639;53;20101;-42
2021/12/04 09:21:54;;;;;;;2.67;1.92;;;3.80;99.90;;;;;;2691720;53;20449;-53
2021/12/04 09:24:26;;;;;;;4.25;2.13;;;3.70;99.90;;;;;;2687085;53;20530;-43
2021/12/04 09:29:35;;;;;;;4.78;1.85;;;3.80;99.90;;;;;;2675551;53;20063;-44
2021/12/04 10:32:28;;;;;;;1.65;1.05;;;3.90;99.90;;;;;;2681892;53;20537;-54
2021/12/04 10:35:01;;;;;;;3.72;1.75;;;3.90;99.90;;;;;;2681378;53;20113;-50
2021/12/04 10:37:29;;;;;;;6.07;1.73;;;3.90;99.90;;;;;;2677294;53;20066;-50
2021/12/04 10:40:06;;;;;;;3.42;0.85;;;3.90;99.90;;;;;;2686178;53;20107;-63
2021/12/04 10:43:08;;;;;;;3.00;1.10;;;3.90;99.90;;;;;;2686034;53;20070;-52
2021/12/04 10:45:51;;;;;;;3.67;1.23;;;3.90;99.90;;;;;;2663325;53;20075;-49
2021/12/04 10:48:23;;;;;;;2.58;1.35;;;3.90;99.90;;;;;;2654897;53;20083;-52
2021/12/04 10:53:30;;;;;;;1.80;1.15;;;3.90;99.90;;;;;;2668875;53;20138;-46
2021/12/04 10:59:13;;;;;;;4.68;2.88;;;3.90;99.90;;;;;;2663340;53;20067;-46
2021/12/04 11:02:04;;;;;;;3.05;1.63;;;3.90;99.90;;;;;;2658602;53;20159;-46
2021/12/04 11:07:56;;;;;;;4.60;1.60;;;3.90;99.90;;;;;;2663202;53;20064;-45
2021/12/04 11:26:52;;;;;;;2.72;1.33;;;3.90;99.90;;;;;;2683184;53;20137;-57
2021/12/04 11:43:00;;;;;;;2.88;2.25;;;3.90;99.90;;;;;;2692123;53;20065;-49
2021/12/04 11:45:44;;;;;;;3.38;2.30;;;3.90;99.90;;;;;;2682810;53;20150;-50
2021/12/04 11:48:11;;;;;;;3.05;1.63;;;3.90;99.90;;;;;;2685814;53;20136;-44
2021/12/04 11:50:40;;;;;;;6.32;2.53;;;3.90;99.90;;;;;;2691826;53;20066;-55
2021/12/04 11:53:16;;;;;;;3.13;2.50;;;3.90;99.90;;;;;;2682387;53;20077;-55
2021/12/04 11:55:45;;;;;;;5.03;2.15;;;3.90;99.90;;;;;;2687321;53;20070;-59
2021/12/04 11:58:21;;;;;;;2.47;1.10;;;3.90;99.90;;;;;;2687210;53;20077;-62
2021/12/04 12:00:49;;;;;;;3.13;2.00;;;3.90;99.90;;;;;;2687132;53;20066;-62
2021/12/04 12:03:19;;;;;;;2.20;1.25;;;3.90;99.90;;;;;;2687723;53;20557;-64
2021/12/04 12:06:14;;;;;;;5.00;2.33;;;3.90;99.90;;;;;;2687367;53;20066;-49
2021/12/04 12:08:43;;;;;;;4.03;2.83;;;3.90;99.90;;;;;;2677787;53;20066;-47
2021/12/04 12:11:22;;;;;;;3.70;2.47;;;3.90;99.90;;;;;;2691807;53;20070;-42
2021/12/04 12:13:51;;;;;;;2.55;1.60;;;3.90;99.90;;;;;;2687029;53;20065;-42
2021/12/04 12:16:22;;;;;;;3.10;2.00;;;3.90;99.90;;;;;;2678054;53;20066;-42
2021/12/04 12:18:59;;;;;;;7.53;3.05;;;4.00;99.90;;;;;;2687012;53;20146;-43
2021/12/04 12:21:55;;;;;;;3.97;2.53;;;3.90;99.90;;;;;;2687488;53;20077;-41
2021/12/04 12:36:03;;;;;;;3.80;2.45;;;4.00;99.90;;;;;;2682714;53;20066;-42
2021/12/04 12:38:55;;;;;;;4.60;2.85;;;4.00;99.90;;;;;;2686881;53;20092;-48
2021/12/04 12:41:39;;;;;;;3.70;1.95;;;4.00;99.90;;;;;;2687373;53;20449;-46
2021/12/04 12:44:17;;;;;;;5.75;2.22;;;4.00;99.90;;;;;;2687061;53;20522;-48
2021/12/04 12:46:55;;;;;;;4.95;2.40;;;4.00;99.90;;;;;;2684526;53;20534;-65
2021/12/04 12:49:28;;;;;;;4.22;2.33;;;4.00;99.90;;;;;;2698694;53;20064;-46
2021/12/04 12:52:00;;;;;;;2.58;1.83;;;4.00;99.90;;;;;;2697811;53;20623;-50
2021/12/04 12:54:50;;;;;;;3.33;2.33;;;4.10;99.90;;;;;;2698070;53;20062;-49
2021/12/04 12:57:28;;;;;;;1.70;1.27;;;4.10;99.90;;;;;;2693399;53;20073;-44
2021/12/04 13:11:44;;;;;;;9.30;2.65;;;4.10;99.90;;;;;;2698279;53;20547;-54
2021/12/04 13:14:18;;;;;;;;;;;4.10;99.90;;;;;;2703628;52;20530;-38
2021/12/04 13:17:18;;;;;;;4.97;2.40;;;4.10;99.90;;;;;;2698197;53;19933;-40
2021/12/04 13:19:48;;;;;;;3.20;2.00;;;4.10;99.90;;;;;;2698769;53;20068;-41
2021/12/04 13:22:19;;;;;;;3.00;1.38;;;4.10;99.90;;;;;;2698192;53;20171;-43
2021/12/04 13:24:48;;;;;;;4.20;1.85;;;4.00;99.90;;;;;;2702744;52;20064;-40
2021/12/04 13:29:50;;;;;;;4.65;2.72;;;4.10;99.90;;;;;;2698103;53;20069;-52
2021/12/04 13:32:32;;;;;;;3.03;1.33;;;4.10;99.90;;;;;;2693602;53;20132;-42
2021/12/04 13:35:09;;;;;;;2.28;1.52;;;4.10;99.90;;;;;;2698090;53;20472;-41
2021/12/04 13:37:36;;;;;;;6.00;1.95;;;4.00;99.90;;;;;;2693485;52;20527;-50
2021/12/04 13:40:08;;;;;;;2.33;1.20;;;4.10;99.90;;;;;;2699180;53;20132;-48
2021/12/04 13:42:36;;;;;;;3.60;1.75;;;4.10;99.90;;;;;;2702946;52;20061;-42
2021/12/04 13:45:06;;;;;;;1.55;1.27;;;4.10;99.90;;;;;;2698368;53;20069;-43
2021/12/04 13:47:33;;;;;;;1.83;1.23;;;4.10;99.90;;;;;;2692467;53;20065;-43
2021/12/04 13:50:00;;;;;;;0.60;0.45;;;4.00;99.90;;;;;;2681897;53;20456;-41
2021/12/04 13:52:33;;;;;;;2.85;1.05;;;4.00;99.90;;;;;;2691556;53;20132;-42
2021/12/04 13:55:05;;;;;;;1.67;0.55;;;3.90;99.90;;;;;;2686603;53;20076;-41
2021/12/04 13:57:33;;;;;;;3.15;1.10;;;3.80;99.90;;;;;;2691372;53;20062;-43
2021/12/04 14:00:03;;;;;;;4.60;1.70;;;3.80;99.90;;;;;;2682134;53;20061;-45
2021/12/04 14:02:31;;;;;;;2.55;1.15;;;3.70;99.90;;;;;;2681811;53;20066;-45
2021/12/04 14:05:07;;;;;;;2.90;1.60;;;3.80;99.90;;;;;;2691460;53;20129;-47
2021/12/04 14:07:35;;;;;;;3.08;1.67;;;3.70;99.90;;;;;;2687300;53;20069;-51
2021/12/04 14:10:30;;;;;;;1.95;1.20;;;3.70;99.90;;;;;;2686254;53;20077;-51
2021/12/04 14:12:58;;;;;;;0.90;0.30;;;3.70;99.90;;;;;;2686527;53;20066;-57
2021/12/04 14:15:26;;;;;;;2.42;0.60;;;3.60;99.70;;;;;;2686606;53;20144;-53
2021/12/04 14:18:07;;;;;;;0.50;0.32;;;3.60;99.90;;;;;;2686512;53;20445;-53
2021/12/04 14:20:37;;;;;;;4.65;0.60;;;3.50;99.90;;;;;;2691325;53;20058;-59
2021/12/04 14:23:04;;;;;;;3.60;0.40;;;3.50;99.90;;;;;;2680136;53;20069;-53
2021/12/04 14:25:31;;;;;;;3.13;0.50;;;3.40;99.90;;;;;;2680135;53;20082;-52
2021/12/04 14:27:59;;;;;;;0.77;0.40;;;3.40;99.90;;;;;;2675427;53;20168;-52
2021/12/04 14:30:33;;;;;;;1.13;0.47;;;3.30;99.90;;;;;;2680019;53;20063;-55
2021/12/04 14:33:05;;;;;;;1.25;0.40;;;3.30;99.90;;;;;;2675465;53;20070;-65
2021/12/04 14:35:39;;;;;;;0.20;0.20;;;3.20;99.90;;;;;;2680206;53;20074;-55
2021/12/04 14:38:09;;;;;;;3.05;0.40;;;3.20;99.90;;;;;;2675912;53;20071;-59
2021/12/04 14:40:57;;;;;;;2.15;0.45;;;3.20;99.90;;;;;;2675905;53;20074;-56
2021/12/04 14:43:27;;;;;;;1.40;0.30;;;3.10;99.90;;;;;;2675388;53;20131;-49
2021/12/04 14:45:56;;;;;;;4.85;0.60;;;3.10;99.90;;;;;;2680256;53;20067;-58
2021/12/04 14:48:33;;;;;;;3.17;0.40;;;3.10;99.90;;;;;;2676298;53;20167;-55
2021/12/04 14:51:20;;;;;;;0.98;0.40;;;3.10;99.90;;;;;;2690685;53;20127;-51
2021/12/04 14:53:53;;;;;;;3.47;0.60;;;3.00;99.90;;;;;;2686155;53;20059;-52
2021/12/04 14:56:22;;;;;;;1.40;0.57;;;3.10;99.90;;;;;;2682185;53;20620;-57
2021/12/04 14:58:49;;;;;;;1.05;0.50;;;3.10;99.90;;;;;;2691468;53;20078;-49
2021/12/04 15:01:18;;;;;;;1.23;0.50;;;3.00;99.90;;;;;;2695568;53;20066;-54
2021/12/04 15:03:56;;;;;;;3.22;0.50;;;3.00;99.90;;;;;;2693322;53;20057;-50
2021/12/04 15:06:24;;;;;;;1.52;0.50;;;3.00;99.90;;;;;;2693076;53;20567;-54
2021/12/04 15:08:54;;;;;;;1.10;0.50;;;3.00;99.90;;;;;;2688353;53;20062;-54
2021/12/04 15:11:24;;;;;;;1.30;0.70;;;3.00;99.90;;;;;;2688259;53;20117;-55
2021/12/04 15:14:14;;;;;;;1.23;0.65;;;3.00;99.90;;;;;;2697509;53;20169;-58
2021/12/04 15:16:48;;;;;;;5.53;1.45;;;3.00;99.90;;;;;;2688291;53;20062;-61
2021/12/04 15:19:26;;;;;;;1.38;0.70;;;3.10;99.90;;;;;;2688444;53;20521;-57
2021/12/04 15:21:58;;;;;;;1.67;0.65;;;3.10;99.90;;;;;;2697493;53;20065;-62
2021/12/04 15:24:35;;;;;;;2.78;0.55;;;3.00;99.90;;;;;;2692929;53;20130;-62
2021/12/04 15:27:08;;;;;;;1.73;0.75;;;2.90;99.90;;;;;;2688216;53;20068;-60
2021/12/04 15:29:37;;;;;;;1.92;0.70;;;2.90;99.90;;;;;;2688658;53;20064;-59
2021/12/04 15:32:13;;;;;;;2.50;0.60;;;2.90;99.90;;;;;;2693256;53;20085;-66
2021/12/04 15:34:53;;;;;;;1.90;1.00;;;2.90;99.90;;;;;;2692818;53;20085;-62
2021/12/04 15:37:43;;;;;;;2.55;0.80;;;2.90;99.90;;;;;;2686770;53;20581;-63
2021/12/04 15:40:39;;;;;;;2.15;1.15;;;2.90;99.90;;;;;;2691327;53;20082;-55
2021/12/04 15:43:23;;;;;;;4.50;2.95;;;2.90;99.90;;;;;;2686701;53;20570;-57
2021/12/04 15:46:10;;;;;;;3.38;1.40;;;2.80;99.90;;;;;;2681801;53;20082;-60
2021/12/04 15:54:14;;;;;;;3.10;1.05;;;2.70;99.90;;;;;;2687633;53;20062;-52
2021/12/04 15:56:46;;;;;;;1.10;0.70;;;2.70;99.90;;;;;;2687872;53;20139;-63
2021/12/04 15:59:22;;;;;;;0.75;0.50;;;2.70;99.90;;;;;;2683215;53;20074;-65
2021/12/04 16:01:53;;;;;;;0.68;0.60;;;2.60;99.90;;;;;;2688078;53;20077;-63
2021/12/04 16:04:32;;;;;;;1.52;0.50;;;2.60;99.90;;;;;;2683137;53;20093;-62
2021/12/04 16:07:00;;;;;;;3.17;0.30;;;2.60;99.90;;;;;;2687781;53;20117;-58
2021/12/04 16:09:36;;;;;;;0.60;0.30;;;2.60;99.90;;;;;;2688073;53;20571;-61
2021/12/04 16:12:12;;;;;;;0.32;0.30;;;2.60;99.90;;;;;;2685796;53;20071;-59
2021/12/04 16:14:45;;;;;;;0.90;0.40;;;2.50;99.90;;;;;;2688939;53;20076;-66
2021/12/04 16:17:12;;;;;;;0.45;0.30;;;2.50;99.90;;;;;;2687999;53;20572;-67
2021/12/04 16:19:43;;;;;;;0.65;0.30;;;2.50;99.90;;;;;;2692470;53;20549;-58
2021/12/04 16:22:12;;;;;;;1.23;0.40;;;2.50;99.60;;;;;;2687680;53;20151;-64
2021/12/04 16:24:43;;;;;;;0.47;0.40;;;2.50;99.80;;;;;;2686719;53;20496;-61
2021/12/04 16:27:16;;;;;;;2.45;0.40;;;2.40;99.90;;;;;;2686909;53;20585;-62
2021/12/04 16:29:54;;;;;;;5.50;0.70;;;2.50;99.60;;;;;;2686924;53;20073;-61
2021/12/04 16:35:18;;;;;;;1.10;0.60;;;2.40;99.90;;;;;;2686867;53;20070;-63